sensor_id;sensor_type;location;lat;lon;timestamp;P1;durP1;ratioP1;P2;durP2;ratioP2
12214;SDS011;6170;42.206;24.142;2023-08-31T00:00:39;1298.07;;;999.90;;
12214;SDS011;6170;42.206;24.142;2023-08-31T00:03:07;1297.20;;;999.90;;
12214;SDS011;6170;42.206;24.142;2023-08-31T00:05:36;1272.03;;;999.90;;
12214;SDS011;6170;42.206;24.142;2023-08-31T00:08:05;1282.75;;;999.90;;
12214;SDS011;6170;42.206;24.142;2023-08-31T00:10:33;1265.18;;;999.90;;
12214;SDS011;6170;42.206;24.142;2023-08-31T00:13:00;1277.97;;;999.90;;
12214;SDS011;6170;42.206;24.142;2023-08-31T00:15:27;1273.75;;;999.90;;
12214;SDS011;6170;42.206;24.142;2023-08-31T00:17:59;1266.95;;;999.90;;
12214;SDS011;6170;42.206;24.142;2023-08-31T00:20:26;1277.63;;;999.90;;
12214;SDS011;6170;42.206;24.142;2023-08-31T00:22:55;1186.70;;;999.90;;
12214;SDS011;6170;42.206;24.142;2023-08-31T00:25:23;1178.68;;;999.90;;
12214;SDS011;6170;42.206;24.142;2023-08-31T00:27:50;1183.88;;;999.90;;
12214;SDS011;6170;42.206;24.142;2023-08-31T00:30:19;1218.00;;;999.90;;
12214;SDS011;6170;42.206;24.142;2023-08-31T00:32:51;1193.47;;;999.90;;
12214;SDS011;6170;42.206;24.142;2023-08-31T00:35:20;1240.43;;;999.90;;
12214;SDS011;6170;42.206;24.142;2023-08-31T00:37:49;1224.47;;;999.90;;
12214;SDS011;6170;42.206;24.142;2023-08-31T00:40:16;1221.70;;;999.90;;
12214;SDS011;6170;42.206;24.142;2023-08-31T00:42:44;1247.80;;;999.90;;
12214;SDS011;6170;42.206;24.142;2023-08-31T00:45:11;1242.85;;;999.90;;
12214;SDS011;6170;42.206;24.142;2023-08-31T00:47:38;1256.10;;;999.90;;
12214;SDS011;6170;42.206;24.142;2023-08-31T00:50:06;1237.95;;;999.90;;
12214;SDS011;6170;42.206;24.142;2023-08-31T00:52:35;1250.78;;;999.90;;
12214;SDS011;6170;42.206;24.142;2023-08-31T00:55:03;1263.93;;;999.90;;
12214;SDS011;6170;42.206;24.142;2023-08-31T00:57:32;1269.43;;;999.90;;
12214;SDS011;6170;42.206;24.142;2023-08-31T00:59:59;1232.40;;;999.90;;
12214;SDS011;6170;42.206;24.142;2023-08-31T01:02:28;1253.32;;;999.90;;
12214;SDS011;6170;42.206;24.142;2023-08-31T01:05:03;1256.85;;;999.90;;
12214;SDS011;6170;42.206;24.142;2023-08-31T01:07:39;1231.32;;;999.90;;
12214;SDS011;6170;42.206;24.142;2023-08-31T01:10:14;1244.22;;;999.90;;
12214;SDS011;6170;42.206;24.142;2023-08-31T01:12:50;1248.05;;;999.90;;
12214;SDS011;6170;42.206;24.142;2023-08-31T01:15:20;1229.95;;;999.90;;
12214;SDS011;6170;42.206;24.142;2023-08-31T01:17:49;1240.95;;;999.90;;
12214;SDS011;6170;42.206;24.142;2023-08-31T01:20:19;1248.55;;;999.90;;
12214;SDS011;6170;42.206;24.142;2023-08-31T01:22:57;1267.03;;;999.90;;
12214;SDS011;6170;42.206;24.142;2023-08-31T01:25:31;1252.90;;;999.90;;
12214;SDS011;6170;42.206;24.142;2023-08-31T01:28:00;1269.65;;;999.90;;
12214;SDS011;6170;42.206;24.142;2023-08-31T01:30:29;1287.30;;;999.90;;
12214;SDS011;6170;42.206;24.142;2023-08-31T01:32:57;1270.15;;;999.90;;
12214;SDS011;6170;42.206;24.142;2023-08-31T01:35:24;1299.85;;;999.90;;
12214;SDS011;6170;42.206;24.142;2023-08-31T01:37:54;1296.95;;;999.90;;
12214;SDS011;6170;42.206;24.142;2023-08-31T01:40:25;1295.70;;;999.90;;
12214;SDS011;6170;42.206;24.142;2023-08-31T01:43:00;1312.03;;;999.90;;
12214;SDS011;6170;42.206;24.142;2023-08-31T01:45:28;1264.15;;;999.90;;
12214;SDS011;6170;42.206;24.142;2023-08-31T01:48:00;1288.87;;;999.90;;
12214;SDS011;6170;42.206;24.142;2023-08-31T01:50:27;1273.97;;;999.90;;
12214;SDS011;6170;42.206;24.142;2023-08-31T01:52:54;1274.88;;;999.90;;
12214;SDS011;6170;42.206;24.142;2023-08-31T01:55:22;1290.60;;;999.90;;
12214;SDS011;6170;42.206;24.142;2023-08-31T01:57:50;1270.00;;;999.90;;
12214;SDS011;6170;42.206;24.142;2023-08-31T02:00:19;1283.97;;;999.90;;
12214;SDS011;6170;42.206;24.142;2023-08-31T02:02:46;1308.28;;;999.90;;
12214;SDS011;6170;42.206;24.142;2023-08-31T02:05:14;1276.00;;;999.90;;
12214;SDS011;6170;42.206;24.142;2023-08-31T02:07:41;1283.22;;;999.90;;
12214;SDS011;6170;42.206;24.142;2023-08-31T02:10:08;1290.43;;;999.90;;
12214;SDS011;6170;42.206;24.142;2023-08-31T02:12:36;1250.85;;;995.92;;
12214;SDS011;6170;42.206;24.142;2023-08-31T02:15:05;1290.72;;;999.90;;
12214;SDS011;6170;42.206;24.142;2023-08-31T02:17:34;1298.65;;;999.90;;
12214;SDS011;6170;42.206;24.142;2023-08-31T02:20:02;1257.07;;;999.90;;
12214;SDS011;6170;42.206;24.142;2023-08-31T02:22:33;1290.57;;;999.90;;
12214;SDS011;6170;42.206;24.142;2023-08-31T02:25:01;1275.22;;;999.90;;
12214;SDS011;6170;42.206;24.142;2023-08-31T02:27:28;1287.18;;;999.90;;
12214;SDS011;6170;42.206;24.142;2023-08-31T02:29:55;1241.53;;;999.90;;
12214;SDS011;6170;42.206;24.142;2023-08-31T02:32:22;1244.53;;;999.90;;
12214;SDS011;6170;42.206;24.142;2023-08-31T02:34:51;1267.00;;;999.90;;
12214;SDS011;6170;42.206;24.142;2023-08-31T02:37:18;1270.25;;;999.90;;
12214;SDS011;6170;42.206;24.142;2023-08-31T02:39:45;1246.53;;;999.90;;
12214;SDS011;6170;42.206;24.142;2023-08-31T02:42:13;1255.43;;;999.90;;
12214;SDS011;6170;42.206;24.142;2023-08-31T02:44:41;1285.65;;;999.90;;
12214;SDS011;6170;42.206;24.142;2023-08-31T02:47:08;1319.65;;;999.90;;
12214;SDS011;6170;42.206;24.142;2023-08-31T02:49:37;1281.28;;;999.90;;
12214;SDS011;6170;42.206;24.142;2023-08-31T02:52:05;1123.63;;;929.45;;
12214;SDS011;6170;42.206;24.142;2023-08-31T02:54:32;321.17;;;293.10;;
12214;SDS011;6170;42.206;24.142;2023-08-31T02:57:00;230.90;;;215.38;;
12214;SDS011;6170;42.206;24.142;2023-08-31T02:59:27;581.75;;;516.53;;
12214;SDS011;6170;42.206;24.142;2023-08-31T03:01:54;665.63;;;616.58;;
12214;SDS011;6170;42.206;24.142;2023-08-31T03:04:21;617.42;;;571.22;;
12214;SDS011;6170;42.206;24.142;2023-08-31T03:06:49;552.08;;;509.77;;
12214;SDS011;6170;42.206;24.142;2023-08-31T03:09:17;501.42;;;465.15;;
12214;SDS011;6170;42.206;24.142;2023-08-31T03:11:45;476.67;;;444.77;;
12214;SDS011;6170;42.206;24.142;2023-08-31T03:14:13;445.30;;;415.83;;
12214;SDS011;6170;42.206;24.142;2023-08-31T03:16:40;426.05;;;398.58;;
12214;SDS011;6170;42.206;24.142;2023-08-31T03:19:07;424.98;;;398.40;;
12214;SDS011;6170;42.206;24.142;2023-08-31T03:21:34;419.63;;;393.27;;
12214;SDS011;6170;42.206;24.142;2023-08-31T03:24:01;397.73;;;372.20;;
12214;SDS011;6170;42.206;24.142;2023-08-31T03:26:30;392.92;;;366.48;;
12214;SDS011;6170;42.206;24.142;2023-08-31T03:28:59;384.27;;;361.45;;
12214;SDS011;6170;42.206;24.142;2023-08-31T03:31:26;391.67;;;367.98;;
12214;SDS011;6170;42.206;24.142;2023-08-31T03:33:53;378.60;;;355.35;;
12214;SDS011;6170;42.206;24.142;2023-08-31T03:36:21;403.35;;;376.98;;
12214;SDS011;6170;42.206;24.142;2023-08-31T03:38:49;403.02;;;377.25;;
12214;SDS011;6170;42.206;24.142;2023-08-31T03:41:16;436.85;;;407.10;;
12214;SDS011;6170;42.206;24.142;2023-08-31T03:43:44;471.95;;;439.30;;
12214;SDS011;6170;42.206;24.142;2023-08-31T03:46:11;557.95;;;518.08;;
12214;SDS011;6170;42.206;24.142;2023-08-31T03:48:38;545.58;;;507.23;;
12214;SDS011;6170;42.206;24.142;2023-08-31T03:51:05;558.83;;;519.55;;
12214;SDS011;6170;42.206;24.142;2023-08-31T03:53:32;608.45;;;565.20;;
12214;SDS011;6170;42.206;24.142;2023-08-31T03:55:59;588.58;;;546.47;;
12214;SDS011;6170;42.206;24.142;2023-08-31T03:58:26;637.55;;;592.25;;
12214;SDS011;6170;42.206;24.142;2023-08-31T04:00:55;676.72;;;628.83;;
12214;SDS011;6170;42.206;24.142;2023-08-31T04:03:22;651.72;;;605.45;;
12214;SDS011;6170;42.206;24.142;2023-08-31T04:05:53;659.90;;;612.28;;
12214;SDS011;6170;42.206;24.142;2023-08-31T04:08:20;633.45;;;589.08;;
12214;SDS011;6170;42.206;24.142;2023-08-31T04:10:47;637.25;;;592.40;;
12214;SDS011;6170;42.206;24.142;2023-08-31T04:13:14;654.33;;;607.65;;
12214;SDS011;6170;42.206;24.142;2023-08-31T04:15:41;628.90;;;584.80;;
12214;SDS011;6170;42.206;24.142;2023-08-31T04:18:10;571.22;;;531.38;;
12214;SDS011;6170;42.206;24.142;2023-08-31T04:20:37;567.20;;;527.75;;
12214;SDS011;6170;42.206;24.142;2023-08-31T04:23:04;571.30;;;532.58;;
12214;SDS011;6170;42.206;24.142;2023-08-31T04:25:31;583.47;;;542.50;;
12214;SDS011;6170;42.206;24.142;2023-08-31T04:27:58;521.72;;;483.60;;
12214;SDS011;6170;42.206;24.142;2023-08-31T04:30:25;547.53;;;510.23;;
12214;SDS011;6170;42.206;24.142;2023-08-31T04:32:53;591.08;;;549.83;;
12214;SDS011;6170;42.206;24.142;2023-08-31T04:35:21;663.17;;;616.42;;
12214;SDS011;6170;42.206;24.142;2023-08-31T04:37:49;583.35;;;536.58;;
12214;SDS011;6170;42.206;24.142;2023-08-31T04:40:16;625.88;;;582.58;;
12214;SDS011;6170;42.206;24.142;2023-08-31T04:42:43;482.65;;;445.27;;
12214;SDS011;6170;42.206;24.142;2023-08-31T04:45:10;605.13;;;561.95;;
12214;SDS011;6170;42.206;24.142;2023-08-31T04:47:37;451.20;;;420.55;;
12214;SDS011;6170;42.206;24.142;2023-08-31T04:50:05;673.92;;;625.35;;
12214;SDS011;6170;42.206;24.142;2023-08-31T04:52:34;465.67;;;433.52;;
12214;SDS011;6170;42.206;24.142;2023-08-31T04:55:01;929.45;;;849.17;;
12214;SDS011;6170;42.206;24.142;2023-08-31T04:57:29;802.03;;;739.58;;
12214;SDS011;6170;42.206;24.142;2023-08-31T04:59:56;987.63;;;897.15;;
12214;SDS011;6170;42.206;24.142;2023-08-31T05:02:23;1107.20;;;988.72;;
12214;SDS011;6170;42.206;24.142;2023-08-31T05:04:51;1373.47;;;999.90;;
12214;SDS011;6170;42.206;24.142;2023-08-31T05:07:18;1472.68;;;980.13;;
12214;SDS011;6170;42.206;24.142;2023-08-31T05:09:46;1488.45;;;983.55;;
12214;SDS011;6170;42.206;24.142;2023-08-31T05:12:15;1061.10;;;945.75;;
12214;SDS011;6170;42.206;24.142;2023-08-31T05:14:42;1031.88;;;925.15;;
12214;SDS011;6170;42.206;24.142;2023-08-31T05:17:09;1007.65;;;903.97;;
12214;SDS011;6170;42.206;24.142;2023-08-31T05:19:36;1005.83;;;904.20;;
12214;SDS011;6170;42.206;24.142;2023-08-31T05:22:03;1021.05;;;919.78;;
12214;SDS011;6170;42.206;24.142;2023-08-31T05:24:30;1015.83;;;916.05;;
12214;SDS011;6170;42.206;24.142;2023-08-31T05:26:59;959.03;;;871.42;;
12214;SDS011;6170;42.206;24.142;2023-08-31T05:29:26;834.63;;;769.25;;
12214;SDS011;6170;42.206;24.142;2023-08-31T05:31:53;868.92;;;798.00;;
12214;SDS011;6170;42.206;24.142;2023-08-31T05:34:20;774.88;;;718.53;;
12214;SDS011;6170;42.206;24.142;2023-08-31T05:36:48;811.83;;;752.67;;
12214;SDS011;6170;42.206;24.142;2023-08-31T05:39:15;772.83;;;717.25;;
12214;SDS011;6170;42.206;24.142;2023-08-31T05:41:42;822.13;;;763.63;;
12214;SDS011;6170;42.206;24.142;2023-08-31T05:44:11;809.88;;;750.80;;
12214;SDS011;6170;42.206;24.142;2023-08-31T05:46:38;740.67;;;688.72;;
12214;SDS011;6170;42.206;24.142;2023-08-31T05:49:06;643.67;;;600.28;;
12214;SDS011;6170;42.206;24.142;2023-08-31T05:51:33;644.22;;;600.88;;
12214;SDS011;6170;42.206;24.142;2023-08-31T05:54:00;630.88;;;587.95;;
12214;SDS011;6170;42.206;24.142;2023-08-31T05:56:28;584.60;;;545.00;;
12214;SDS011;6170;42.206;24.142;2023-08-31T05:58:55;570.55;;;532.22;;
12214;SDS011;6170;42.206;24.142;2023-08-31T06:01:23;584.88;;;545.15;;
12214;SDS011;6170;42.206;24.142;2023-08-31T06:03:50;569.38;;;531.35;;
12214;SDS011;6170;42.206;24.142;2023-08-31T06:06:17;562.55;;;524.28;;
12214;SDS011;6170;42.206;24.142;2023-08-31T06:08:44;579.97;;;539.72;;
12214;SDS011;6170;42.206;24.142;2023-08-31T06:11:11;598.03;;;557.55;;
12214;SDS011;6170;42.206;24.142;2023-08-31T06:13:39;617.83;;;575.40;;
12214;SDS011;6170;42.206;24.142;2023-08-31T06:16:06;647.70;;;602.15;;
12214;SDS011;6170;42.206;24.142;2023-08-31T06:18:35;608.83;;;566.35;;
12214;SDS011;6170;42.206;24.142;2023-08-31T06:21:02;645.30;;;601.08;;
12214;SDS011;6170;42.206;24.142;2023-08-31T06:23:29;663.00;;;617.10;;
12214;SDS011;6170;42.206;24.142;2023-08-31T06:25:56;632.47;;;589.92;;
12214;SDS011;6170;42.206;24.142;2023-08-31T06:28:23;654.03;;;609.00;;
12214;SDS011;6170;42.206;24.142;2023-08-31T06:30:50;665.67;;;619.83;;
12214;SDS011;6170;42.206;24.142;2023-08-31T06:33:17;690.70;;;643.42;;
12214;SDS011;6170;42.206;24.142;2023-08-31T06:35:46;675.95;;;629.72;;
12214;SDS011;6170;42.206;24.142;2023-08-31T06:38:16;706.50;;;658.17;;
12214;SDS011;6170;42.206;24.142;2023-08-31T06:40:43;703.22;;;655.38;;
12214;SDS011;6170;42.206;24.142;2023-08-31T06:43:11;719.35;;;669.20;;
12214;SDS011;6170;42.206;24.142;2023-08-31T06:45:38;729.58;;;680.20;;
12214;SDS011;6170;42.206;24.142;2023-08-31T06:48:06;721.28;;;672.00;;
12214;SDS011;6170;42.206;24.142;2023-08-31T06:50:33;712.83;;;664.92;;
12214;SDS011;6170;42.206;24.142;2023-08-31T06:53:03;650.78;;;606.40;;
12214;SDS011;6170;42.206;24.142;2023-08-31T06:55:30;640.72;;;596.83;;
12214;SDS011;6170;42.206;24.142;2023-08-31T06:57:59;636.35;;;590.20;;
12214;SDS011;6170;42.206;24.142;2023-08-31T07:00:26;664.72;;;618.80;;
12214;SDS011;6170;42.206;24.142;2023-08-31T07:02:53;681.63;;;633.65;;
12214;SDS011;6170;42.206;24.142;2023-08-31T07:05:24;698.17;;;649.72;;
12214;SDS011;6170;42.206;24.142;2023-08-31T07:07:53;742.20;;;690.13;;
12214;SDS011;6170;42.206;24.142;2023-08-31T07:10:22;729.95;;;678.55;;
12214;SDS011;6170;42.206;24.142;2023-08-31T07:12:49;747.35;;;694.17;;
12214;SDS011;6170;42.206;24.142;2023-08-31T07:15:16;745.72;;;694.58;;
12214;SDS011;6170;42.206;24.142;2023-08-31T07:17:43;752.08;;;700.10;;
12214;SDS011;6170;42.206;24.142;2023-08-31T07:20:10;743.20;;;691.63;;
12214;SDS011;6170;42.206;24.142;2023-08-31T07:22:38;756.88;;;704.20;;
12214;SDS011;6170;42.206;24.142;2023-08-31T07:25:06;733.88;;;682.30;;
12214;SDS011;6170;42.206;24.142;2023-08-31T07:27:35;735.92;;;684.28;;
12214;SDS011;6170;42.206;24.142;2023-08-31T07:30:02;726.15;;;676.22;;
12214;SDS011;6170;42.206;24.142;2023-08-31T07:32:30;712.17;;;662.95;;
12214;SDS011;6170;42.206;24.142;2023-08-31T07:34:58;733.30;;;682.03;;
12214;SDS011;6170;42.206;24.142;2023-08-31T07:37:25;735.97;;;684.03;;
12214;SDS011;6170;42.206;24.142;2023-08-31T07:39:52;733.88;;;683.28;;
12214;SDS011;6170;42.206;24.142;2023-08-31T07:42:19;732.53;;;681.72;;
12214;SDS011;6170;42.206;24.142;2023-08-31T07:44:47;738.33;;;686.10;;
12214;SDS011;6170;42.206;24.142;2023-08-31T07:47:14;722.03;;;671.88;;
12214;SDS011;6170;42.206;24.142;2023-08-31T07:49:41;716.90;;;667.83;;
12214;SDS011;6170;42.206;24.142;2023-08-31T07:52:09;726.03;;;675.58;;
12214;SDS011;6170;42.206;24.142;2023-08-31T07:54:36;747.70;;;695.05;;
12214;SDS011;6170;42.206;24.142;2023-08-31T07:57:03;713.88;;;663.45;;
12214;SDS011;6170;42.206;24.142;2023-08-31T07:59:30;722.88;;;671.13;;
12214;SDS011;6170;42.206;24.142;2023-08-31T08:01:59;730.60;;;678.60;;
12214;SDS011;6170;42.206;24.142;2023-08-31T08:04:26;746.75;;;694.30;;
12214;SDS011;6170;42.206;24.142;2023-08-31T08:06:54;732.72;;;681.42;;
12214;SDS011;6170;42.206;24.142;2023-08-31T08:09:21;739.90;;;688.38;;
12214;SDS011;6170;42.206;24.142;2023-08-31T08:11:48;738.72;;;686.58;;
12214;SDS011;6170;42.206;24.142;2023-08-31T08:14:16;721.47;;;671.60;;
12214;SDS011;6170;42.206;24.142;2023-08-31T08:16:43;737.80;;;685.10;;
12214;SDS011;6170;42.206;24.142;2023-08-31T08:19:11;717.15;;;667.88;;
12214;SDS011;6170;42.206;24.142;2023-08-31T08:21:38;720.78;;;671.05;;
12214;SDS011;6170;42.206;24.142;2023-08-31T08:24:05;730.28;;;678.92;;
12214;SDS011;6170;42.206;24.142;2023-08-31T08:26:33;731.05;;;679.53;;
12214;SDS011;6170;42.206;24.142;2023-08-31T08:29:00;711.70;;;662.13;;
12214;SDS011;6170;42.206;24.142;2023-08-31T08:31:28;723.10;;;672.38;;
12214;SDS011;6170;42.206;24.142;2023-08-31T08:33:55;716.40;;;665.83;;
12214;SDS011;6170;42.206;24.142;2023-08-31T08:36:24;728.70;;;677.63;;
12214;SDS011;6170;42.206;24.142;2023-08-31T08:38:51;732.00;;;680.35;;
12214;SDS011;6170;42.206;24.142;2023-08-31T08:41:18;710.53;;;661.97;;
12214;SDS011;6170;42.206;24.142;2023-08-31T08:43:49;716.75;;;667.35;;
12214;SDS011;6170;42.206;24.142;2023-08-31T08:46:18;734.10;;;683.17;;
12214;SDS011;6170;42.206;24.142;2023-08-31T08:48:45;700.63;;;651.38;;
12214;SDS011;6170;42.206;24.142;2023-08-31T08:51:13;715.30;;;665.05;;
12214;SDS011;6170;42.206;24.142;2023-08-31T08:53:42;723.80;;;673.72;;
12214;SDS011;6170;42.206;24.142;2023-08-31T08:56:10;729.45;;;678.97;;
12214;SDS011;6170;42.206;24.142;2023-08-31T08:58:37;697.42;;;648.33;;
12214;SDS011;6170;42.206;24.142;2023-08-31T09:01:04;709.85;;;661.20;;
12214;SDS011;6170;42.206;24.142;2023-08-31T09:03:34;709.75;;;660.25;;
12214;SDS011;6170;42.206;24.142;2023-08-31T09:06:01;699.67;;;650.78;;
12214;SDS011;6170;42.206;24.142;2023-08-31T09:08:29;705.38;;;655.88;;
12214;SDS011;6170;42.206;24.142;2023-08-31T09:10:57;714.35;;;664.40;;
12214;SDS011;6170;42.206;24.142;2023-08-31T09:13:26;700.47;;;652.05;;
12214;SDS011;6170;42.206;24.142;2023-08-31T09:15:54;712.90;;;663.58;;
12214;SDS011;6170;42.206;24.142;2023-08-31T09:18:25;687.05;;;638.22;;
12214;SDS011;6170;42.206;24.142;2023-08-31T09:20:53;722.33;;;671.50;;
12214;SDS011;6170;42.206;24.142;2023-08-31T09:23:22;696.17;;;648.42;;
12214;SDS011;6170;42.206;24.142;2023-08-31T09:25:49;685.80;;;638.55;;
12214;SDS011;6170;42.206;24.142;2023-08-31T09:28:20;695.83;;;647.70;;
12214;SDS011;6170;42.206;24.142;2023-08-31T09:30:48;698.15;;;649.58;;
12214;SDS011;6170;42.206;24.142;2023-08-31T09:33:17;692.55;;;644.63;;
12214;SDS011;6170;42.206;24.142;2023-08-31T09:35:46;684.70;;;636.70;;
12214;SDS011;6170;42.206;24.142;2023-08-31T09:38:15;704.78;;;654.88;;
12214;SDS011;6170;42.206;24.142;2023-08-31T09:40:42;700.20;;;650.67;;
12214;SDS011;6170;42.206;24.142;2023-08-31T09:43:09;721.92;;;670.78;;
12214;SDS011;6170;42.206;24.142;2023-08-31T09:45:37;740.67;;;688.55;;
12214;SDS011;6170;42.206;24.142;2023-08-31T09:48:05;754.28;;;700.72;;
12214;SDS011;6170;42.206;24.142;2023-08-31T09:50:33;746.92;;;695.28;;
12214;SDS011;6170;42.206;24.142;2023-08-31T09:53:02;750.83;;;698.40;;
12214;SDS011;6170;42.206;24.142;2023-08-31T09:55:30;749.85;;;698.03;;
12214;SDS011;6170;42.206;24.142;2023-08-31T09:57:58;745.47;;;693.70;;
12214;SDS011;6170;42.206;24.142;2023-08-31T10:00:27;764.67;;;710.72;;
12214;SDS011;6170;42.206;24.142;2023-08-31T10:02:58;754.33;;;702.95;;
12214;SDS011;6170;42.206;24.142;2023-08-31T10:05:28;768.25;;;713.60;;
12214;SDS011;6170;42.206;24.142;2023-08-31T10:07:56;729.05;;;678.17;;
12214;SDS011;6170;42.206;24.142;2023-08-31T10:10:23;706.08;;;657.33;;
12214;SDS011;6170;42.206;24.142;2023-08-31T10:12:51;719.08;;;669.30;;
12214;SDS011;6170;42.206;24.142;2023-08-31T10:15:18;708.63;;;659.60;;
12214;SDS011;6170;42.206;24.142;2023-08-31T10:17:45;704.75;;;655.10;;
12214;SDS011;6170;42.206;24.142;2023-08-31T10:20:15;729.63;;;678.63;;
12214;SDS011;6170;42.206;24.142;2023-08-31T10:22:43;739.83;;;688.60;;
12214;SDS011;6170;42.206;24.142;2023-08-31T10:25:11;722.15;;;671.20;;
12214;SDS011;6170;42.206;24.142;2023-08-31T10:27:38;710.35;;;660.13;;
12214;SDS011;6170;42.206;24.142;2023-08-31T10:30:13;732.83;;;680.92;;
12214;SDS011;6170;42.206;24.142;2023-08-31T10:35:54;687.42;;;637.45;;
12214;SDS011;6170;42.206;24.142;2023-08-31T10:38:25;663.50;;;616.78;;
12214;SDS011;6170;42.206;24.142;2023-08-31T10:43:48;707.00;;;657.50;;
12214;SDS011;6170;42.206;24.142;2023-08-31T10:46:18;684.58;;;636.22;;
12214;SDS011;6170;42.206;24.142;2023-08-31T10:48:51;675.20;;;628.10;;
12214;SDS011;6170;42.206;24.142;2023-08-31T10:51:22;659.03;;;612.67;;
12214;SDS011;6170;42.206;24.142;2023-08-31T10:53:50;649.08;;;603.40;;
12214;SDS011;6170;42.206;24.142;2023-08-31T10:56:17;692.75;;;644.35;;
12214;SDS011;6170;42.206;24.142;2023-08-31T10:58:57;718.13;;;666.95;;
12214;SDS011;6170;42.206;24.142;2023-08-31T11:04:20;712.08;;;662.17;;
12214;SDS011;6170;42.206;24.142;2023-08-31T11:06:49;719.50;;;669.20;;
12214;SDS011;6170;42.206;24.142;2023-08-31T11:09:31;762.20;;;707.30;;
12214;SDS011;6170;42.206;24.142;2023-08-31T11:11:59;773.95;;;719.70;;
12214;SDS011;6170;42.206;24.142;2023-08-31T11:14:27;746.55;;;694.17;;
12214;SDS011;6170;42.206;24.142;2023-08-31T11:16:54;741.30;;;689.33;;
12214;SDS011;6170;42.206;24.142;2023-08-31T11:19:21;730.85;;;680.53;;
12214;SDS011;6170;42.206;24.142;2023-08-31T11:21:50;729.38;;;679.20;;
12214;SDS011;6170;42.206;24.142;2023-08-31T11:24:17;734.13;;;683.45;;
12214;SDS011;6170;42.206;24.142;2023-08-31T11:26:47;734.38;;;683.63;;
12214;SDS011;6170;42.206;24.142;2023-08-31T11:29:14;735.92;;;684.92;;
12214;SDS011;6170;42.206;24.142;2023-08-31T11:31:41;743.58;;;691.75;;
12214;SDS011;6170;42.206;24.142;2023-08-31T11:34:11;769.28;;;715.55;;
12214;SDS011;6170;42.206;24.142;2023-08-31T11:36:39;755.00;;;702.47;;
12214;SDS011;6170;42.206;24.142;2023-08-31T11:39:09;779.22;;;725.53;;
12214;SDS011;6170;42.206;24.142;2023-08-31T11:41:37;758.78;;;705.92;;
12214;SDS011;6170;42.206;24.142;2023-08-31T11:44:06;748.55;;;696.45;;
12214;SDS011;6170;42.206;24.142;2023-08-31T11:46:35;750.35;;;698.17;;
12214;SDS011;6170;42.206;24.142;2023-08-31T11:49:02;732.35;;;681.92;;
12214;SDS011;6170;42.206;24.142;2023-08-31T11:51:31;756.30;;;702.38;;
12214;SDS011;6170;42.206;24.142;2023-08-31T11:53:59;738.67;;;686.58;;
12214;SDS011;6170;42.206;24.142;2023-08-31T11:56:28;733.92;;;682.70;;
12214;SDS011;6170;42.206;24.142;2023-08-31T11:59:07;752.20;;;699.05;;
12214;SDS011;6170;42.206;24.142;2023-08-31T12:01:37;749.60;;;697.22;;
12214;SDS011;6170;42.206;24.142;2023-08-31T12:04:12;723.42;;;673.60;;
12214;SDS011;6170;42.206;24.142;2023-08-31T12:06:40;718.85;;;667.92;;
12214;SDS011;6170;42.206;24.142;2023-08-31T12:09:09;694.95;;;646.67;;
12214;SDS011;6170;42.206;24.142;2023-08-31T12:11:37;715.95;;;666.28;;
12214;SDS011;6170;42.206;24.142;2023-08-31T12:14:17;706.20;;;656.47;;
12214;SDS011;6170;42.206;24.142;2023-08-31T12:16:46;695.30;;;647.97;;
12214;SDS011;6170;42.206;24.142;2023-08-31T12:19:13;714.33;;;664.95;;
12214;SDS011;6170;42.206;24.142;2023-08-31T12:21:41;696.85;;;648.58;;
12214;SDS011;6170;42.206;24.142;2023-08-31T12:24:09;709.15;;;659.88;;
12214;SDS011;6170;42.206;24.142;2023-08-31T12:26:37;762.72;;;710.28;;
12214;SDS011;6170;42.206;24.142;2023-08-31T12:29:04;761.90;;;709.67;;
12214;SDS011;6170;42.206;24.142;2023-08-31T12:31:32;748.90;;;696.83;;
12214;SDS011;6170;42.206;24.142;2023-08-31T12:33:59;742.13;;;689.33;;
12214;SDS011;6170;42.206;24.142;2023-08-31T12:36:30;752.10;;;699.85;;
12214;SDS011;6170;42.206;24.142;2023-08-31T12:38:57;740.10;;;688.38;;
12214;SDS011;6170;42.206;24.142;2023-08-31T12:41:26;736.85;;;684.63;;
12214;SDS011;6170;42.206;24.142;2023-08-31T12:43:55;748.38;;;694.45;;
12214;SDS011;6170;42.206;24.142;2023-08-31T12:46:22;745.38;;;693.03;;
12214;SDS011;6170;42.206;24.142;2023-08-31T12:48:50;734.90;;;683.83;;
12214;SDS011;6170;42.206;24.142;2023-08-31T12:51:18;774.05;;;719.25;;
12214;SDS011;6170;42.206;24.142;2023-08-31T12:53:45;753.63;;;700.00;;
12214;SDS011;6170;42.206;24.142;2023-08-31T12:56:12;735.63;;;683.85;;
12214;SDS011;6170;42.206;24.142;2023-08-31T12:58:40;724.55;;;674.08;;
12214;SDS011;6170;42.206;24.142;2023-08-31T13:01:08;740.17;;;687.95;;
12214;SDS011;6170;42.206;24.142;2023-08-31T13:03:35;738.40;;;687.70;;
12214;SDS011;6170;42.206;24.142;2023-08-31T13:06:02;745.63;;;693.75;;
12214;SDS011;6170;42.206;24.142;2023-08-31T13:08:29;719.35;;;670.28;;
12214;SDS011;6170;42.206;24.142;2023-08-31T13:10:56;753.00;;;700.55;;
12214;SDS011;6170;42.206;24.142;2023-08-31T13:13:23;744.88;;;693.72;;
12214;SDS011;6170;42.206;24.142;2023-08-31T13:15:51;749.47;;;697.08;;
12214;SDS011;6170;42.206;24.142;2023-08-31T13:18:19;711.97;;;663.05;;
12214;SDS011;6170;42.206;24.142;2023-08-31T13:20:49;728.42;;;677.60;;
12214;SDS011;6170;42.206;24.142;2023-08-31T13:23:17;718.78;;;668.38;;
12214;SDS011;6170;42.206;24.142;2023-08-31T13:25:44;731.15;;;680.88;;
12214;SDS011;6170;42.206;24.142;2023-08-31T13:28:11;720.30;;;669.67;;
12214;SDS011;6170;42.206;24.142;2023-08-31T13:30:39;704.25;;;656.50;;
12214;SDS011;6170;42.206;24.142;2023-08-31T13:33:07;695.58;;;646.63;;
12214;SDS011;6170;42.206;24.142;2023-08-31T13:35:36;724.50;;;673.75;;
12214;SDS011;6170;42.206;24.142;2023-08-31T13:38:03;704.45;;;655.47;;
12214;SDS011;6170;42.206;24.142;2023-08-31T13:40:33;704.40;;;656.30;;
12214;SDS011;6170;42.206;24.142;2023-08-31T13:43:00;717.70;;;667.15;;
12214;SDS011;6170;42.206;24.142;2023-08-31T13:45:28;736.95;;;686.53;;
12214;SDS011;6170;42.206;24.142;2023-08-31T13:47:55;731.20;;;681.20;;
12214;SDS011;6170;42.206;24.142;2023-08-31T13:50:24;729.30;;;678.63;;
12214;SDS011;6170;42.206;24.142;2023-08-31T13:52:52;722.83;;;672.60;;
12214;SDS011;6170;42.206;24.142;2023-08-31T13:55:20;720.55;;;670.70;;
12214;SDS011;6170;42.206;24.142;2023-08-31T13:57:47;698.92;;;650.17;;
12214;SDS011;6170;42.206;24.142;2023-08-31T14:00:14;753.05;;;700.35;;
12214;SDS011;6170;42.206;24.142;2023-08-31T14:02:42;751.88;;;699.78;;
12214;SDS011;6170;42.206;24.142;2023-08-31T14:05:10;759.95;;;706.65;;
12214;SDS011;6170;42.206;24.142;2023-08-31T14:07:37;755.75;;;703.83;;